Accueil
METAR-TAF:

METAR-TAF

Aéroports :

Aéroport du Gloucestershire

Gloucester, Angleterre

latitude: 51-54N, longitude: 002-10W, altitude: 29 m

Observation

Le bulletin a été fait il y a 9 heures et 6 minutes, à 17:50 UTC
Vent calme
Température 7°C
Humidité 66%
Pression 1006 hPa
Visibilité 10 km ou plus
Quelques nuages à une hauteur de 3600 ft

METAR: EGBJ 031750Z 00000KT 9999 FEW036 07/01 Q1006

Heure: 02:56 (02:56 UTC)

Prévision

Le bulletin a été fait il y a 12 heures et 57 minutes, à 13:59 UTC
Prévision valable du 03 à 15 UTC au 03 à 19 UTC
Vent 2 kt de direction variable
Visibilité 10 km ou plus
Quelques nuages à une hauteur de 2000 ft
Probabilité 30% :
Temporairement
du 03 à 15 UTC au 03 à 18 UTC
Visibilité: 8000 m
faibles averses de pluie,

TAF: EGBJ 031359Z 0315/0319 VRB02KT 9999 FEW020 PROB30 TEMPO 0315/0318 8000 -SHRA

Observations et prévisions météorologiques de plus de 4000 aéroports (messages METAR et TAF).

Les stations disponibles sont représentées par des disques jaunes et rouges sur la carte.

Passer la souris dessus pour voir le nom de la station.

Cliquer dessus pour voir les observations et prévisions météorologiques.

Pour changer de carte: cliquez sur les boutons verts avec une croix noire pour zoomer, sur le bouton vert avec un tiret pour effectuer un zoom arrière, ou sur les flèches vertes pour les cartes adjacentes.


METAR-TAF: